Time;durP1;ratioP1;P1;durP2;ratioP2;P2;SDS_P1;SDS_P2;PMS_P1;PMS_P2;Temp;Humidity;BMP_temperature;BMP_pressure;BME280_temperature;BME280_humidity;BME280_pressure;Samples;Min_cycle;Max_cycle;Signal;HPM_P1;HPM_P2
2023/03/28 00:00:10;;;;;;;19.63;6.60;;;2.70;77.90;;;;;;5052362;28;20381;-72
2023/03/28 00:02:36;;;;;;;10.65;4.82;;;2.60;80.10;;;;;;5051965;28;20778;-71
2023/03/28 00:05:02;;;;;;;17.93;5.20;;;2.50;79.70;;;;;;5051692;28;20381;-72
2023/03/28 00:07:28;;;;;;;18.07;5.20;;;2.40;79.40;;;;;;5052528;28;20462;-73
2023/03/28 00:09:55;;;;;;;18.05;4.80;;;2.30;82.70;;;;;;5052343;28;20393;-71
2023/03/28 00:12:20;;;;;;;14.10;4.28;;;2.40;82.30;;;;;;5052005;28;20384;-71
2023/03/28 00:14:46;;;;;;;19.85;5.00;;;2.50;79.80;;;;;;5051812;28;20874;-72
2023/03/28 00:17:12;;;;;;;21.23;5.55;;;2.40;81.30;;;;;;5052095;28;20476;-73
2023/03/28 00:19:39;;;;;;;17.33;5.00;;;2.30;82.60;;;;;;5052156;28;20397;-73
2023/03/28 00:22:07;;;;;;;13.70;5.38;;;2.10;83.70;;;;;;5051868;28;20409;-72
2023/03/28 00:24:37;;;;;;;15.82;4.97;;;2.20;87.00;;;;;;5052093;28;20413;-71
2023/03/28 00:27:04;;;;;;;18.23;5.67;;;2.00;87.10;;;;;;5052217;28;20431;-71
2023/03/28 00:29:30;;;;;;;14.95;6.30;;;2.20;87.50;;;;;;5052120;28;20386;-74
2023/03/28 00:31:56;;;;;;;14.93;5.30;;;2.10;88.50;;;;;;5052314;28;20396;-72
2023/03/28 00:34:22;;;;;;;20.63;6.75;;;2.50;83.70;;;;;;5052272;28;20393;-71
2023/03/28 00:36:47;;;;;;;14.83;6.27;;;2.60;84.80;;;;;;5051625;28;20381;-71
2023/03/28 00:39:13;;;;;;;17.50;6.07;;;2.70;81.00;;;;;;5051584;28;20408;-72
2023/03/28 00:41:42;;;;;;;22.65;6.32;;;2.60;79.90;;;;;;5051575;28;20407;-70
2023/03/28 00:44:45;;;;;;;20.80;6.07;;;2.70;81.40;;;;;;5051489;28;20457;-72
2023/03/28 00:47:40;;;;;;;16.05;5.95;;;2.50;80.30;;;;;;5051365;28;20822;-72
2023/03/28 00:50:26;;;;;;;19.25;5.30;;;2.40;81.00;;;;;;5050302;28;20395;-72
2023/03/28 00:53:03;;;;;;;12.50;4.68;;;2.30;84.00;;;;;;5052525;28;20393;-73
2023/03/28 00:56:03;;;;;;;15.32;5.47;;;2.30;83.30;;;;;;5053647;28;20401;-73
2023/03/28 00:58:32;;;;;;;16.73;4.97;;;2.40;82.10;;;;;;5045305;28;20447;-73
2023/03/28 01:00:58;;;;;;;17.25;4.90;;;2.40;80.70;;;;;;5051686;28;20401;-73
2023/03/28 01:03:29;;;;;;;17.13;4.50;;;2.40;81.30;;;;;;5051642;28;20928;-72
2023/03/28 01:05:55;;;;;;;18.08;5.10;;;2.60;80.70;;;;;;5051483;28;20382;-72
2023/03/28 01:08:24;;;;;;;13.95;4.70;;;2.60;80.00;;;;;;5051384;28;20396;-71
2023/03/28 01:10:49;;;;;;;17.02;4.80;;;2.60;78.70;;;;;;5052534;28;20396;-73
2023/03/28 01:13:24;;;;;;;15.07;4.60;;;2.40;78.50;;;;;;5053136;28;20393;-70
2023/03/28 01:15:50;;;;;;;15.35;5.05;;;2.40;80.70;;;;;;5052273;28;20392;-73
2023/03/28 01:18:21;;;;;;;15.98;5.00;;;2.40;82.00;;;;;;5052750;28;20865;-72
2023/03/28 01:21:05;;;;;;;11.35;4.85;;;2.40;82.10;;;;;;5062902;28;20856;-70
2023/03/28 01:24:01;;;;;;;16.23;5.45;;;2.40;80.90;;;;;;5050832;28;20405;-71
2023/03/28 01:26:39;;;;;;;19.27;5.13;;;2.40;81.10;;;;;;5050950;28;20460;-72
2023/03/28 01:29:32;;;;;;;13.85;4.40;;;2.50;79.60;;;;;;5051052;28;20448;-72
2023/03/28 01:32:26;;;;;;;18.03;5.13;;;2.30;79.20;;;;;;5051231;28;20409;-73
2023/03/28 01:35:23;;;;;;;14.90;6.15;;;2.20;82.10;;;;;;5050628;28;20893;-72
2023/03/28 01:38:28;;;;;;;13.85;5.78;;;2.40;86.20;;;;;;5050504;28;20392;-73
2023/03/28 01:41:04;;;;;;;11.93;4.50;;;2.20;87.20;;;;;;5041038;28;20870;-72
2023/03/28 01:44:07;;;;;;;17.23;5.40;;;1.90;87.80;;;;;;5050790;28;21063;-73
2023/03/28 01:46:41;;;;;;;18.05;5.75;;;1.70;91.50;;;;;;5045025;28;20389;-73
2023/03/28 01:49:29;;;;;;;16.45;4.95;;;1.60;93.40;;;;;;5051244;28;20378;-72
2023/03/28 01:52:00;;;;;;;16.70;6.10;;;1.40;94.90;;;;;;5050536;28;20374;-72
2023/03/28 01:54:42;;;;;;;14.30;5.25;;;1.40;99.40;;;;;;5050404;28;20386;-73
2023/03/28 01:57:27;;;;;;;15.05;5.32;;;1.40;99.30;;;;;;5049249;28;20396;-71
2023/03/28 02:00:11;;;;;;;23.23;6.10;;;1.30;99.90;;;;;;5050295;28;20385;-73
2023/03/28 02:02:42;;;;;;;14.50;5.60;;;1.30;99.90;;;;;;5050284;28;20409;-71
2023/03/28 02:05:12;;;;;;;17.13;5.53;;;1.40;99.90;;;;;;5050761;28;20378;-71
2023/03/28 02:07:40;;;;;;;18.00;4.97;;;1.30;99.90;;;;;;5050489;28;20370;-72
2023/03/28 02:10:09;;;;;;;15.50;5.03;;;1.10;99.90;;;;;;5050500;28;20382;-72
2023/03/28 02:12:43;;;;;;;15.70;5.90;;;0.90;99.90;;;;;;5048701;28;20389;-74
2023/03/28 02:15:14;;;;;;;17.58;5.85;;;0.80;99.90;;;;;;5050524;28;20394;-71
2023/03/28 02:17:44;;;;;;;21.42;5.55;;;0.80;99.90;;;;;;5050403;28;20384;-72
2023/03/28 02:20:14;;;;;;;17.05;5.70;;;0.80;99.90;;;;;;5048866;28;20393;-72
2023/03/28 02:22:58;;;;;;;13.25;6.30;;;0.70;99.90;;;;;;5050037;28;20770;-73
2023/03/28 02:25:23;;;;;;;12.20;5.15;;;0.80;99.90;;;;;;5049015;28;20850;-72
2023/03/28 02:27:52;;;;;;;20.70;5.90;;;0.90;99.90;;;;;;5052233;28;20389;-73
2023/03/28 02:30:20;;;;;;;17.40;5.40;;;0.80;99.90;;;;;;5053900;28;20381;-72
2023/03/28 02:32:49;;;;;;;18.90;6.20;;;0.70;99.90;;;;;;5053590;28;20776;-73
2023/03/28 02:35:18;;;;;;;16.20;5.50;;;0.60;99.90;;;;;;5053717;28;20400;-74
2023/03/28 02:38:03;;;;;;;18.43;5.30;;;0.80;99.90;;;;;;5053605;28;20731;-71
2023/03/28 02:40:44;;;;;;;12.23;5.63;;;0.90;99.90;;;;;;5053605;28;21003;-74
2023/03/28 02:43:34;;;;;;;15.02;5.70;;;0.80;99.90;;;;;;5053178;28;20397;-72
2023/03/28 02:46:18;;;;;;;12.07;6.20;;;0.60;99.90;;;;;;5053784;28;20381;-71
2023/03/28 02:49:05;;;;;;;16.70;6.60;;;0.60;99.90;;;;;;5053433;28;20377;-71
2023/03/28 02:51:40;;;;;;;18.77;5.53;;;0.80;99.90;;;;;;5053155;28;20460;-71
2023/03/28 02:54:39;;;;;;;17.70;5.93;;;0.80;99.90;;;;;;5053601;28;20461;-71
2023/03/28 02:57:15;;;;;;;14.27;5.00;;;0.70;99.90;;;;;;5031961;28;20728;-71
2023/03/28 02:59:54;;;;;;;18.80;6.10;;;0.60;99.90;;;;;;5053338;28;20477;-72
2023/03/28 03:02:20;;;;;;;14.68;5.13;;;0.50;99.90;;;;;;5055356;28;20445;-73
2023/03/28 03:04:49;;;;;;;16.42;6.10;;;0.50;99.90;;;;;;5054405;28;20583;-70
2023/03/28 03:07:16;;;;;;;15.30;5.88;;;0.50;99.90;;;;;;5053464;28;20443;-72
2023/03/28 03:09:44;;;;;;;15.13;5.72;;;0.50;99.90;;;;;;5053017;28;20378;-72
2023/03/28 03:12:10;;;;;;;12.35;5.90;;;0.50;99.90;;;;;;5053444;28;20413;-74
2023/03/28 03:14:35;;;;;;;13.48;5.78;;;0.60;99.90;;;;;;5053998;28;20412;-70
2023/03/28 03:17:01;;;;;;;17.60;6.00;;;0.60;99.90;;;;;;5053082;28;20378;-71
2023/03/28 03:19:31;;;;;;;14.20;5.60;;;0.60;99.90;;;;;;5053209;28;20443;-71
2023/03/28 03:21:57;;;;;;;20.20;5.60;;;0.60;99.90;;;;;;5052690;28;20420;-71
2023/03/28 03:24:23;;;;;;;20.95;6.03;;;0.60;99.90;;;;;;5052681;28;20735;-69
2023/03/28 03:26:49;;;;;;;16.55;5.60;;;0.60;99.90;;;;;;5052733;28;20984;-71
2023/03/28 03:29:15;;;;;;;16.60;5.30;;;0.60;99.90;;;;;;5053075;28;20540;-71
2023/03/28 03:31:40;;;;;;;17.30;5.80;;;0.60;99.90;;;;;;5053704;28;20906;-70
2023/03/28 03:34:06;;;;;;;14.77;5.60;;;0.60;99.90;;;;;;5052601;28;20384;-70
2023/03/28 03:36:32;;;;;;;15.40;5.20;;;0.60;99.90;;;;;;5052824;28;20385;-70
2023/03/28 03:38:58;;;;;;;13.70;5.60;;;0.60;99.90;;;;;;5051679;28;20393;-70
2023/03/28 03:41:24;;;;;;;17.95;6.00;;;0.60;99.90;;;;;;5052577;28;20392;-70
2023/03/28 03:43:50;;;;;;;19.40;6.00;;;0.70;99.90;;;;;;5053533;28;20369;-70
2023/03/28 03:46:15;;;;;;;12.05;5.30;;;0.70;99.90;;;;;;5053049;28;20793;-70
2023/03/28 03:48:41;;;;;;;18.40;5.53;;;0.60;99.90;;;;;;5051272;28;20391;-72
2023/03/28 03:51:07;;;;;;;11.27;5.10;;;0.50;99.90;;;;;;5051124;28;20386;-71
2023/03/28 03:53:33;;;;;;;16.80;5.78;;;0.60;99.90;;;;;;5052814;28;20392;-70
2023/03/28 03:56:03;;;;;;;18.77;6.55;;;0.80;99.90;;;;;;5051061;28;20401;-70
2023/03/28 03:58:29;;;;;;;18.77;5.30;;;1.00;99.90;;;;;;5053199;28;20403;-70
2023/03/28 04:00:56;;;;;;;15.60;6.17;;;0.90;99.90;;;;;;5052233;28;20455;-72
2023/03/28 04:03:22;;;;;;;17.33;6.05;;;0.80;99.90;;;;;;5052437;28;20401;-70
2023/03/28 04:05:48;;;;;;;14.90;6.40;;;0.70;99.90;;;;;;5052233;28;20796;-71
2023/03/28 04:08:13;;;;;;;17.60;6.33;;;0.60;99.90;;;;;;5050832;28;20392;-70
2023/03/28 04:10:40;;;;;;;22.42;7.68;;;0.60;99.90;;;;;;5052007;28;20790;-70
2023/03/28 04:13:05;;;;;;;18.08;6.35;;;0.50;99.90;;;;;;5051573;28;20887;-70
2023/03/28 04:15:31;;;;;;;22.40;7.30;;;0.40;99.90;;;;;;5052264;28;20599;-72
2023/03/28 04:17:56;;;;;;;20.50;7.60;;;0.50;99.90;;;;;;5051983;28;20405;-70
2023/03/28 04:20:22;;;;;;;19.10;7.27;;;0.60;99.90;;;;;;5052193;28;20405;-71
2023/03/28 04:22:49;;;;;;;19.38;7.18;;;0.70;99.90;;;;;;5051615;28;20415;-70
2023/03/28 04:25:16;;;;;;;19.30;7.00;;;0.80;99.90;;;;;;5052284;28;20408;-71
2023/03/28 04:27:47;;;;;;;15.00;7.72;;;0.70;99.90;;;;;;5051661;28;20378;-69
2023/03/28 04:30:16;;;;;;;16.23;7.10;;;0.60;99.90;;;;;;5051718;28;20846;-71
2023/03/28 04:32:43;;;;;;;19.88;8.10;;;0.50;99.90;;;;;;5051288;28;20389;-71
2023/03/28 04:35:10;;;;;;;24.47;8.50;;;0.70;99.90;;;;;;5052340;28;20377;-70
2023/03/28 04:37:36;;;;;;;17.52;7.88;;;0.70;99.90;;;;;;5051788;28;20412;-70
2023/03/28 04:40:11;;;;;;;15.35;8.20;;;0.70;99.90;;;;;;5051804;28;20392;-71
2023/03/28 04:42:38;;;;;;;20.58;8.73;;;0.70;99.90;;;;;;5051532;28;20504;-72
2023/03/28 04:45:05;;;;;;;18.33;8.75;;;0.60;99.90;;;;;;5051509;28;20397;-69
2023/03/28 04:47:31;;;;;;;23.52;9.30;;;0.50;99.90;;;;;;5052894;28;20381;-70
2023/03/28 04:49:57;;;;;;;20.38;9.45;;;0.40;99.90;;;;;;5059300;28;20386;-71
2023/03/28 04:52:23;;;;;;;22.85;8.55;;;0.60;99.90;;;;;;5061927;28;20389;-72
2023/03/28 04:54:48;;;;;;;21.75;7.90;;;0.60;99.90;;;;;;5061826;28;20406;-72
2023/03/28 04:57:14;;;;;;;19.57;8.30;;;0.50;99.90;;;;;;5063224;28;20400;-73
2023/03/28 04:59:40;;;;;;;20.63;7.97;;;0.40;99.90;;;;;;5063471;28;20389;-72
2023/03/28 05:02:05;;;;;;;13.88;7.93;;;0.40;99.90;;;;;;5063960;28;20409;-72
2023/03/28 05:04:31;;;;;;;21.70;8.30;;;0.40;99.90;;;;;;5057263;28;20403;-72
2023/03/28 05:06:56;;;;;;;18.10;8.43;;;0.30;99.90;;;;;;5053073;28;20528;-70
2023/03/28 05:09:22;;;;;;;21.07;8.50;;;0.40;99.90;;;;;;5052057;28;20439;-70
2023/03/28 05:11:48;;;;;;;21.10;8.75;;;0.40;99.90;;;;;;5051602;28;20401;-70
2023/03/28 05:14:14;;;;;;;22.20;8.83;;;0.40;99.90;;;;;;5051276;28;20843;-70
2023/03/28 05:16:39;;;;;;;22.27;8.25;;;0.30;99.90;;;;;;5052394;28;20386;-71
2023/03/28 05:19:05;;;;;;;23.15;9.23;;;0.30;99.90;;;;;;5052453;28;20409;-70
2023/03/28 05:21:31;;;;;;;19.77;8.97;;;0.30;99.90;;;;;;5052596;28;20401;-71
2023/03/28 05:23:56;;;;;;;14.93;8.27;;;0.30;99.90;;;;;;5050648;28;20411;-71
2023/03/28 05:26:22;;;;;;;23.60;8.65;;;0.20;99.90;;;;;;5049675;28;20394;-71
2023/03/28 05:28:48;;;;;;;20.40;8.95;;;0.30;99.90;;;;;;5049265;28;20874;-71
2023/03/28 05:31:16;;;;;;;22.73;8.57;;;0.30;99.90;;;;;;5049608;28;21003;-69
2023/03/28 05:33:42;;;;;;;21.65;9.05;;;0.40;99.90;;;;;;5050449;28;20888;-70
2023/03/28 05:36:08;;;;;;;18.80;9.20;;;0.40;99.90;;;;;;5047566;28;20415;-70
2023/03/28 05:38:33;;;;;;;25.05;9.07;;;0.40;99.90;;;;;;5030761;28;20407;-72
2023/03/28 05:40:59;;;;;;;23.70;8.50;;;0.60;99.90;;;;;;5031040;28;20418;-72
2023/03/28 05:43:25;;;;;;;20.42;9.07;;;0.50;99.90;;;;;;5043424;28;20483;-72
2023/03/28 05:45:51;;;;;;;27.77;9.80;;;0.50;99.90;;;;;;5026979;28;20903;-73
2023/03/28 05:48:17;;;;;;;20.38;9.10;;;0.50;99.90;;;;;;5038209;28;20394;-74
2023/03/28 05:50:46;;;;;;;19.50;9.80;;;0.70;99.90;;;;;;5048696;28;20462;-73
2023/03/28 05:53:11;;;;;;;21.08;9.50;;;0.80;99.90;;;;;;5048414;28;20424;-72
2023/03/28 05:55:37;;;;;;;20.23;8.60;;;0.70;99.90;;;;;;5049215;28;20518;-73
2023/03/28 05:58:04;;;;;;;21.73;9.73;;;0.80;99.90;;;;;;5049170;28;20393;-72
2023/03/28 06:00:29;;;;;;;23.33;9.45;;;0.80;99.90;;;;;;5038258;28;20440;-71
2023/03/28 06:02:55;;;;;;;28.20;10.82;;;0.80;99.90;;;;;;5037751;28;20415;-72
2023/03/28 06:05:21;;;;;;;24.38;10.30;;;0.90;99.90;;;;;;5047807;28;20401;-74
2023/03/28 06:07:46;;;;;;;21.73;10.43;;;1.10;99.90;;;;;;5060703;28;20390;-75
2023/03/28 06:10:14;;;;;;;19.48;9.20;;;1.00;99.90;;;;;;5061465;28;20389;-71
2023/03/28 06:12:40;;;;;;;19.83;8.82;;;1.10;99.90;;;;;;5059596;28;20423;-74
2023/03/28 06:15:07;;;;;;;20.40;9.23;;;1.00;99.90;;;;;;5058407;28;20396;-73
2023/03/28 06:17:33;;;;;;;25.83;10.85;;;1.00;99.90;;;;;;5057202;28;20401;-72
2023/03/28 06:19:59;;;;;;;19.92;9.48;;;1.20;99.90;;;;;;5059694;28;20952;-74
2023/03/28 06:22:25;;;;;;;28.58;9.63;;;1.30;99.90;;;;;;5057390;28;20401;-71
2023/03/28 06:24:51;;;;;;;19.25;10.30;;;1.40;99.90;;;;;;5052312;28;20796;-72
2023/03/28 06:27:17;;;;;;;19.30;9.60;;;1.50;99.90;;;;;;5051104;28;20923;-71
2023/03/28 06:29:42;;;;;;;21.52;9.70;;;1.50;99.90;;;;;;5051364;28;20421;-72
2023/03/28 06:32:08;;;;;;;31.02;12.73;;;1.50;99.90;;;;;;5051089;28;20405;-71
2023/03/28 06:34:33;;;;;;;22.13;10.85;;;1.80;99.90;;;;;;5051855;28;20381;-71
2023/03/28 06:37:00;;;;;;;24.05;9.93;;;2.00;99.90;;;;;;5048256;28;21117;-72
2023/03/28 06:39:26;;;;;;;29.00;11.00;;;1.90;92.30;;;;;;5031620;28;20519;-71
2023/03/28 06:41:51;;;;;;;21.65;11.05;;;1.90;93.90;;;;;;5031654;28;20541;-73
2023/03/28 06:44:17;;;;;;;27.42;11.70;;;2.10;96.00;;;;;;5037725;28;20512;-71
2023/03/28 06:46:42;;;;;;;22.97;10.80;;;2.40;96.50;;;;;;5051495;28;20382;-71
2023/03/28 06:49:08;;;;;;;20.43;9.30;;;2.40;91.10;;;;;;5051704;28;20393;-71
2023/03/28 06:51:34;;;;;;;24.60;9.80;;;2.40;87.20;;;;;;5050858;28;20486;-72
2023/03/28 06:53:59;;;;;;;25.60;10.40;;;2.40;86.50;;;;;;5050400;28;20425;-71
2023/03/28 06:56:25;;;;;;;22.60;8.97;;;2.50;86.60;;;;;;5051362;28;20498;-71
2023/03/28 06:58:50;;;;;;;25.30;9.60;;;2.40;84.00;;;;;;5051017;28;20938;-70
2023/03/28 07:01:16;;;;;;;20.42;9.60;;;2.60;86.90;;;;;;5049350;28;20482;-72
2023/03/28 07:03:42;;;;;;;25.38;10.27;;;2.60;80.60;;;;;;5051049;28;20470;-73
2023/03/28 07:06:09;;;;;;;20.70;9.60;;;2.70;84.00;;;;;;5050948;28;20916;-70
2023/03/28 07:08:35;;;;;;;25.00;11.88;;;2.60;79.80;;;;;;5051019;28;20940;-71
2023/03/28 07:11:01;;;;;;;27.70;9.83;;;2.90;84.50;;;;;;5050514;28;20901;-70
2023/03/28 07:13:27;;;;;;;22.05;9.63;;;3.00;79.80;;;;;;5048930;28;20405;-71
2023/03/28 07:16:04;;;;;;;23.42;10.65;;;3.10;76.90;;;;;;5050529;28;20390;-73
2023/03/28 07:18:30;;;;;;;20.85;9.85;;;3.00;77.20;;;;;;5051368;28;20951;-72
2023/03/28 07:20:55;;;;;;;22.23;10.10;;;3.10;77.70;;;;;;5051293;28;20863;-70
2023/03/28 07:23:21;;;;;;;22.63;10.55;;;3.40;75.50;;;;;;5051502;28;20424;-71
2023/03/28 07:25:47;;;;;;;17.88;10.48;;;3.30;75.20;;;;;;5051644;28;20382;-71
2023/03/28 07:28:12;;;;;;;22.17;9.53;;;3.30;74.70;;;;;;5060637;28;20477;-72
2023/03/28 07:30:38;;;;;;;21.60;11.00;;;3.50;74.10;;;;;;5065531;28;20840;-71
2023/03/28 07:33:03;;;;;;;20.43;9.07;;;3.70;74.10;;;;;;5063687;28;20404;-72
2023/03/28 07:35:29;;;;;;;21.40;10.93;;;3.70;69.90;;;;;;5055144;28;20405;-70
2023/03/28 07:37:54;;;;;;;22.73;8.70;;;3.80;69.50;;;;;;5048890;28;20410;-71
2023/03/28 07:40:20;;;;;;;19.20;9.63;;;4.10;69.60;;;;;;5050447;28;20471;-70
2023/03/28 07:42:48;;;;;;;27.70;9.63;;;4.00;64.50;;;;;;5050312;28;20409;-70
2023/03/28 07:45:13;;;;;;;24.73;9.80;;;4.20;62.20;;;;;;5047083;28;20401;-72
2023/03/28 07:47:39;;;;;;;28.08;11.88;;;4.30;62.80;;;;;;5028871;28;20387;-72
2023/03/28 07:50:06;;;;;;;20.52;9.82;;;4.70;62.90;;;;;;5036662;28;20790;-70
2023/03/28 07:52:31;;;;;;;25.00;9.50;;;4.90;59.20;;;;;;5049414;28;20389;-72
2023/03/28 07:54:57;;;;;;;21.93;9.00;;;4.90;55.60;;;;;;5049618;28;20842;-71
2023/03/28 07:57:22;;;;;;;31.03;11.60;;;4.90;56.00;;;;;;5050113;28;20912;-70
2023/03/28 07:59:49;;;;;;;28.57;10.57;;;5.20;58.00;;;;;;5047891;28;20381;-72
2023/03/28 08:02:15;;;;;;;22.30;8.57;;;5.40;55.00;;;;;;5047987;28;20910;-70
2023/03/28 08:04:41;;;;;;;19.30;9.55;;;5.40;50.20;;;;;;5049104;28;20398;-70
2023/03/28 08:07:06;;;;;;;24.35;9.10;;;5.40;50.80;;;;;;5049231;28;20392;-69
2023/03/28 08:09:32;;;;;;;20.48;9.43;;;5.20;52.00;;;;;;5048637;28;20450;-71
2023/03/28 08:11:57;;;;;;;20.30;8.80;;;5.40;52.80;;;;;;5049005;28;20439;-71
2023/03/28 08:14:23;;;;;;;25.83;8.50;;;5.50;50.20;;;;;;5049574;28;20402;-70
2023/03/28 08:16:49;;;;;;;21.87;9.03;;;5.40;47.60;;;;;;5049822;28;20392;-69
2023/03/28 08:19:15;;;;;;;19.70;9.70;;;5.60;48.50;;;;;;5045460;28;20407;-71
2023/03/28 08:21:40;;;;;;;17.13;7.80;;;5.70;46.20;;;;;;5044816;28;21000;-69
2023/03/28 08:24:06;;;;;;;18.55;8.48;;;5.90;42.80;;;;;;5049492;28;20461;-69
2023/03/28 08:26:32;;;;;;;23.83;8.00;;;5.90;44.20;;;;;;5047835;28;20471;-71
2023/03/28 08:28:58;;;;;;;18.58;7.68;;;5.90;43.80;;;;;;5049071;28;20814;-69
2023/03/28 08:31:25;;;;;;;14.55;6.82;;;6.20;42.40;;;;;;5049795;28;20389;-70
2023/03/28 08:33:52;;;;;;;18.70;7.55;;;6.30;39.10;;;;;;5049825;28;20465;-70
2023/03/28 08:36:19;;;;;;;17.80;7.80;;;6.40;37.50;;;;;;5046032;28;20426;-70
2023/03/28 08:38:46;;;;;;;16.65;7.43;;;6.60;37.30;;;;;;5030048;28;20740;-69
2023/03/28 08:41:30;;;;;;;17.50;7.72;;;6.60;37.00;;;;;;5029338;28;20441;-70
2023/03/28 08:44:11;;;;;;;21.95;7.20;;;6.50;37.90;;;;;;5029583;28;20398;-71
2023/03/28 08:46:40;;;;;;;19.38;6.43;;;6.70;36.00;;;;;;5029701;28;20398;-72
2023/03/28 08:49:15;;;;;;;26.35;7.00;;;7.00;33.60;;;;;;5029944;28;20398;-70
2023/03/28 08:52:04;;;;;;;23.73;7.05;;;7.00;33.70;;;;;;5029797;28;20875;-70
2023/03/28 08:54:35;;;;;;;16.13;7.40;;;7.10;33.60;;;;;;5029877;28;20387;-70
2023/03/28 08:57:03;;;;;;;17.08;7.10;;;7.20;34.10;;;;;;5029709;28;20665;-69
2023/03/28 08:59:47;;;;;;;15.63;6.07;;;7.30;33.10;;;;;;5027689;28;20394;-71
2023/03/28 09:02:19;;;;;;;14.48;5.53;;;7.50;31.90;;;;;;5042311;28;20441;-74
2023/03/28 09:04:45;;;;;;;16.17;6.20;;;7.40;31.70;;;;;;5049419;28;20413;-71
2023/03/28 09:07:33;;;;;;;14.27;5.60;;;7.90;29.90;;;;;;5048856;28;21445;-69
2023/03/28 09:10:24;;;;;;;19.10;4.57;;;8.00;29.30;;;;;;5050700;28;20389;-69
2023/03/28 09:13:06;;;;;;;12.18;4.47;;;8.40;25.70;;;;;;5050130;28;20402;-70
2023/03/28 09:15:58;;;;;;;14.35;4.93;;;8.50;25.20;;;;;;5064376;22;20445;-73
2023/03/28 09:19:02;;;;;;;19.73;5.20;;;8.40;27.60;;;;;;5052801;28;20382;-74
2023/03/28 09:21:53;;;;;;;12.23;4.30;;;8.80;25.50;;;;;;5055353;28;20393;-74
2023/03/28 09:24:27;;;;;;;15.93;4.50;;;9.20;21.60;;;;;;5060941;28;20738;-73
2023/03/28 09:27:02;;;;;;;19.52;5.07;;;9.40;20.30;;;;;;5068599;28;20708;-76
2023/03/28 09:29:31;;;;;;;14.57;5.07;;;9.10;22.90;;;;;;5066578;28;20750;-76
2023/03/28 09:32:04;;;;;;;16.20;4.00;;;9.10;23.10;;;;;;5050245;28;20409;-76
2023/03/28 09:34:38;;;;;;;13.73;4.40;;;9.20;21.30;;;;;;5050412;28;20788;-76
2023/03/28 09:37:53;;;;;;;12.80;3.72;;;9.20;21.40;;;;;;5036446;28;20391;-75
2023/03/28 09:40:30;;;;;;;10.98;3.80;;;9.60;20.40;;;;;;5045219;28;20426;-77
2023/03/28 09:43:18;;;;;;;10.18;3.60;;;9.80;19.00;;;;;;5051726;28;20419;-78
2023/03/28 09:45:57;;;;;;;9.80;3.20;;;9.80;19.30;;;;;;5040251;28;20906;-76
2023/03/28 09:48:35;;;;;;;17.10;3.73;;;10.00;18.10;;;;;;5030724;28;20398;-77
2023/03/28 09:51:02;;;;;;;10.37;3.17;;;10.30;17.10;;;;;;5034111;28;20398;-76
2023/03/28 09:53:34;;;;;;;9.60;3.17;;;10.30;17.30;;;;;;5014856;28;20440;-77
2023/03/28 09:56:24;;;;;;;10.32;2.83;;;10.20;16.40;;;;;;5032756;28;20411;-76
2023/03/28 09:58:56;;;;;;;10.95;3.33;;;10.40;16.40;;;;;;5014858;28;21001;-76
2023/03/28 10:01:42;;;;;;;5.50;2.03;;;10.40;15.30;;;;;;5029879;28;20417;-75
2023/03/28 10:04:09;;;;;;;10.57;2.72;;;9.80;14.00;;;;;;5030874;28;20399;-77
2023/03/28 10:06:38;;;;;;;9.65;2.50;;;9.90;13.60;;;;;;5031938;28;20437;-77
2023/03/28 10:09:09;;;;;;;11.32;3.78;;;9.90;13.90;;;;;;5031478;28;20725;-76
2023/03/28 10:11:58;;;;;;;7.68;2.60;;;10.10;15.20;;;;;;5030144;28;20476;-77
2023/03/28 10:14:33;;;;;;;5.95;1.88;;;10.00;13.10;;;;;;5029878;28;20497;-77
2023/03/28 10:17:32;;;;;;;9.38;2.22;;;10.00;12.20;;;;;;5031283;28;20383;-76
2023/03/28 10:20:16;;;;;;;8.13;1.70;;;10.10;12.00;;;;;;5028850;28;20399;-77
2023/03/28 10:22:44;;;;;;;4.80;2.20;;;10.30;11.60;;;;;;5030648;28;20493;-77
2023/03/28 10:25:19;;;;;;;7.68;2.00;;;10.50;10.80;;;;;;5031168;28;20391;-77
2023/03/28 10:27:46;;;;;;;10.35;3.50;;;10.30;12.40;;;;;;5030610;28;20402;-77
2023/03/28 10:30:29;;;;;;;8.05;2.10;;;10.40;13.50;;;;;;5029839;28;20395;-77
2023/03/28 10:33:14;;;;;;;12.85;2.80;;;10.40;11.40;;;;;;5019075;28;20709;-77
2023/03/28 10:35:53;;;;;;;7.03;2.15;;;10.10;12.10;;;;;;5030418;28;20412;-77
2023/03/28 10:38:20;;;;;;;6.90;2.43;;;10.10;12.60;;;;;;5030285;28;20468;-77
2023/03/28 10:41:11;;;;;;;8.77;2.47;;;10.30;11.90;;;;;;5030260;28;20406;-75
2023/03/28 10:43:40;;;;;;;8.57;2.40;;;10.40;11.90;;;;;;5023848;28;20899;-76
2023/03/28 10:46:34;;;;;;;8.27;2.70;;;10.50;12.00;;;;;;5030211;28;20452;-76
2023/03/28 10:49:02;;;;;;;8.02;2.60;;;10.80;11.40;;;;;;5032685;28;20387;-76
2023/03/28 10:51:32;;;;;;;9.52;2.30;;;11.00;10.90;;;;;;5033978;28;20780;-76
2023/03/28 10:54:14;;;;;;;9.40;2.30;;;10.90;11.70;;;;;;5033811;28;20411;-77
2023/03/28 10:56:53;;;;;;;9.68;2.90;;;11.00;10.30;;;;;;5033435;28;20391;-75
2023/03/28 10:59:55;;;;;;;10.20;2.63;;;11.10;11.40;;;;;;5036418;28;20494;-76
2023/03/28 11:02:48;;;;;;;7.93;2.35;;;11.30;9.50;;;;;;5041645;28;20516;-76
2023/03/28 11:05:16;;;;;;;5.78;2.47;;;11.40;10.00;;;;;;5038416;28;20391;-77
2023/03/28 11:07:51;;;;;;;5.45;2.28;;;11.50;9.70;;;;;;5038583;28;20485;-79
2023/03/28 11:10:25;;;;;;;8.32;2.70;;;11.60;9.60;;;;;;5035452;28;20419;-80
2023/03/28 11:13:32;;;;;;;7.82;2.50;;;11.70;10.30;;;;;;5038582;28;20399;-78
2023/03/28 11:16:21;;;;;;;11.25;4.68;;;11.70;10.10;;;;;;5038316;28;20398;-78
2023/03/28 11:19:08;;;;;;;6.80;1.90;;;11.80;10.10;;;;;;5039215;28;20383;-79
2023/03/28 11:21:57;;;;;;;7.50;2.80;;;11.60;9.50;;;;;;5035426;28;20794;-77
2023/03/28 11:24:40;;;;;;;8.15;2.35;;;12.00;8.40;;;;;;5036309;28;20403;-77
2023/03/28 11:27:21;;;;;;;6.93;2.30;;;11.90;8.00;;;;;;5037478;28;20383;-78
2023/03/28 11:29:51;;;;;;;5.28;2.30;;;11.70;9.70;;;;;;5036391;28;20395;-78
2023/03/28 11:32:33;;;;;;;6.60;2.47;;;11.10;10.20;;;;;;5040093;28;20947;-79
2023/03/28 11:35:13;;;;;;;8.73;3.38;;;11.50;10.00;;;;;;5040971;28;20394;-77
2023/03/28 11:37:43;;;;;;;11.05;4.45;;;11.90;10.50;;;;;;5040731;28;20399;-77
2023/03/28 11:40:17;;;;;;;8.68;3.00;;;11.60;10.70;;;;;;5052668;28;20385;-76
2023/03/28 11:43:04;;;;;;;4.75;2.40;;;11.00;10.40;;;;;;5064450;28;20409;-76
2023/03/28 11:45:38;;;;;;;7.95;2.00;;;11.70;9.10;;;;;;5035194;28;20771;-76
2023/03/28 11:48:13;;;;;;;9.55;3.50;;;11.70;9.10;;;;;;5040025;28;20386;-77
2023/03/28 11:50:45;;;;;;;10.68;3.60;;;11.50;10.60;;;;;;5050560;28;20426;-78
2023/03/28 11:53:25;;;;;;;7.05;2.20;;;11.80;9.90;;;;;;5054185;28;20410;-79
2023/03/28 11:56:10;;;;;;;4.70;2.10;;;11.80;8.60;;;;;;5048298;28;20395;-76
2023/03/28 11:58:40;;;;;;;12.82;3.70;;;11.90;8.50;;;;;;5052558;28;20399;-77
2023/03/28 12:01:17;;;;;;;5.37;2.80;;;12.10;7.90;;;;;;5041804;28;20371;-76
2023/03/28 12:03:45;;;;;;;5.55;2.88;;;12.40;7.60;;;;;;5035977;28;20399;-75
2023/03/28 12:06:30;;;;;;;4.10;1.70;;;12.40;7.80;;;;;;5033686;28;20389;-75
2023/03/28 12:09:23;;;;;;;4.87;2.13;;;12.30;7.10;;;;;;5038623;28;20429;-75
2023/03/28 12:11:59;;;;;;;4.30;2.10;;;12.60;6.80;;;;;;5049370;28;20386;-76
2023/03/28 12:15:01;;;;;;;8.50;2.10;;;13.10;6.20;;;;;;5046424;28;20537;-76
2023/03/28 12:17:31;;;;;;;5.55;2.03;;;13.00;6.00;;;;;;5045375;28;20398;-76
2023/03/28 12:19:57;;;;;;;8.38;1.98;;;12.90;5.70;;;;;;5042372;28;20391;-76
2023/03/28 12:22:40;;;;;;;5.78;2.00;;;12.50;6.30;;;;;;5037138;28;20403;-76
2023/03/28 12:25:32;;;;;;;5.75;2.30;;;12.50;6.70;;;;;;5033110;28;20379;-76
2023/03/28 12:28:03;;;;;;;5.60;2.77;;;12.30;6.80;;;;;;5026472;28;20388;-76
2023/03/28 12:30:39;;;;;;;5.15;2.40;;;11.70;8.60;;;;;;5031201;28;20390;-75
2023/03/28 12:33:31;;;;;;;4.77;2.30;;;11.70;9.00;;;;;;5032255;28;20387;-75
2023/03/28 12:36:16;;;;;;;7.32;2.00;;;11.70;8.40;;;;;;5031760;28;20390;-75
2023/03/28 12:38:52;;;;;;;5.25;2.08;;;11.80;7.60;;;;;;5032060;28;20474;-77
2023/03/28 12:41:23;;;;;;;3.60;2.22;;;11.70;7.80;;;;;;5032404;28;20398;-75
2023/03/28 12:44:00;;;;;;;4.57;2.30;;;11.00;7.00;;;;;;5032610;28;20410;-75
2023/03/28 12:46:50;;;;;;;5.70;2.08;;;11.20;7.20;;;;;;5032674;28;20390;-80
2023/03/28 12:49:19;;;;;;;3.95;1.83;;;11.40;7.30;;;;;;5034054;28;20375;-76
2023/03/28 12:51:52;;;;;;;5.40;1.98;;;11.60;5.80;;;;;;5031806;28;20466;-76
2023/03/28 12:54:25;;;;;;;5.65;2.25;;;12.00;5.20;;;;;;5031725;28;20371;-76
2023/03/28 12:57:05;;;;;;;5.70;2.20;;;12.10;5.10;;;;;;5032863;28;20466;-76
2023/03/28 12:59:46;;;;;;;4.38;2.20;;;12.60;5.00;;;;;;5032976;28;20386;-77
2023/03/28 13:02:49;;;;;;;7.32;2.90;;;13.10;4.10;;;;;;5031997;28;20453;-74
2023/03/28 13:05:46;;;;;;;4.05;2.20;;;13.10;4.60;;;;;;5032595;28;20394;-75
2023/03/28 13:08:37;;;;;;;8.03;2.23;;;13.20;3.60;;;;;;5035392;28;20386;-75
2023/03/28 13:11:22;;;;;;;5.18;2.10;;;13.10;3.00;;;;;;5033069;28;20481;-75
2023/03/28 13:14:23;;;;;;;6.78;2.40;;;13.30;2.80;;;;;;5035662;28;20383;-75
2023/03/28 13:17:16;;;;;;;5.97;2.50;;;13.40;3.30;;;;;;5034244;28;20390;-75